Time;durP1;ratioP1;P1;durP2;ratioP2;P2;SDS_P1;SDS_P2;PMS_P1;PMS_P2;Temp;Humidity;BMP_temperature;BMP_pressure;BME280_temperature;BME280_humidity;BME280_pressure;Samples;Min_cycle;Max_cycle;Signal;HPM_P1;HPM_P2
2022/01/13 00:00:06;;;;;;;25.67;9.02;;;4.60;99.90;;;;;;5058154;28;20048;-73
2022/01/13 00:02:35;;;;;;;33.95;9.10;;;;;;;;;;5085296;28;20036;-73
2022/01/13 00:05:01;;;;;;;35.03;10.40;;;;;;;;;;5078480;28;20076;-73
2022/01/13 00:07:27;;;;;;;52.35;9.48;;;;;;;;;;5083437;28;20052;-73
2022/01/13 00:09:53;;;;;;;21.48;9.75;;;;;;;;;;5093058;28;20097;-73
2022/01/13 00:12:20;;;;;;;27.83;10.02;;;;;;;;;;5081088;28;20093;-73
2022/01/13 00:15:49;;;;;;;26.50;10.15;;;;;;;;;;5093836;28;20152;-73
2022/01/13 00:20:29;;;;;;;23.58;10.35;;;;;;;;;;5073914;28;20087;-73
2022/01/13 00:25:39;;;;;;;25.42;10.13;;;;;;;;;;5094262;28;20098;-73
2022/01/13 00:28:15;;;;;;;28.42;11.13;;;4.60;99.90;;;;;;5082603;28;20047;-73
2022/01/13 00:30:41;;;;;;;33.85;11.07;;;;;;;;;;5058593;28;20048;-73
2022/01/13 00:33:09;;;;;;;27.27;9.82;;;;;;;;;;5083874;28;20067;-73
2022/01/13 00:35:36;;;;;;;27.08;11.40;;;;;;;;;;5093533;28;20047;-73
2022/01/13 00:38:02;;;;;;;24.88;10.70;;;;;;;;;;5091779;28;20049;-73
2022/01/13 00:40:28;;;;;;;32.65;11.30;;;;;;;;;;5094161;28;20036;-73
2022/01/13 00:42:54;;;;;;;39.65;10.65;;;;;;;;;;5070479;28;20085;-73
2022/01/13 00:45:20;;;;;;;35.30;12.02;;;;;;;;;;5073375;28;20045;-73
2022/01/13 00:47:46;;;;;;;24.20;10.30;;;;;;;;;;5076192;28;20036;-73
2022/01/13 00:50:12;;;;;;;26.60;11.43;;;;;;;;;;5073754;28;20044;-73
2022/01/13 00:52:38;;;;;;;29.05;12.30;;;;;;;;;;5076238;28;20032;-73
2022/01/13 00:55:08;;;;;;;31.17;11.40;;;;;;;;;;5093748;28;20040;-72
2022/01/13 00:57:34;;;;;;;29.83;11.70;;;;;;;;;;5088483;28;20040;-73
2022/01/13 01:00:01;;;;;;;35.80;11.70;;;;;;;;;;5093394;28;20047;-73
2022/01/13 01:02:27;;;;;;;33.40;12.23;;;;;;;;;;5093170;28;20085;-73
2022/01/13 01:04:53;;;;;;;35.47;12.88;;;;;;;;;;5072974;28;20538;-73
2022/01/13 01:07:19;;;;;;;31.08;12.00;;;;;;;;;;5073110;28;20076;-73
2022/01/13 01:09:50;;;;;;;35.47;12.18;;;;;;;;;;5091861;28;20078;-73
2022/01/13 01:12:18;;;;;;;30.45;12.30;;;4.80;99.90;;;;;;5093254;28;20046;-73
2022/01/13 01:14:49;;;;;;;30.02;12.23;;;;;;;;;;5075585;28;20051;-73
2022/01/13 01:17:16;;;;;;;36.50;12.05;;;;;;;;;;5075988;28;20180;-73
2022/01/13 01:19:48;;;;;;;30.33;12.13;;;4.80;99.90;;;;;;5089438;28;20481;-73
2022/01/13 01:27:26;;;;;;;31.02;12.48;;;;;;;;;;5076490;28;20586;-73
2022/01/13 01:30:08;;;;;;;32.65;13.18;;;;;;;;;;5072199;28;20060;-73
2022/01/13 01:32:36;;;;;;;35.17;12.13;;;5.70;99.90;;;;;;5072594;28;20040;-73
2022/01/13 01:35:04;;;;;;;36.83;13.13;;;5.70;99.90;;;;;;5073378;28;20044;-73
2022/01/13 01:37:30;;;;;;;35.03;12.45;;;;;;;;;;5089355;28;20040;-73
2022/01/13 01:39:58;;;;;;;29.30;12.35;;;5.00;99.90;;;;;;5087175;28;20040;-73
2022/01/13 01:42:26;;;;;;;41.05;13.65;;;5.00;99.90;;;;;;5092816;28;20051;-73
2022/01/13 01:44:55;;;;;;;41.83;12.60;;;5.10;99.90;;;;;;5078154;28;20068;-73
2022/01/13 01:47:22;;;;;;;32.03;12.30;;;5.10;99.90;;;;;;5074159;28;20037;-73
2022/01/13 01:49:55;;;;;;;37.60;13.57;;;5.00;99.90;;;;;;5078834;28;20040;-73
2022/01/13 01:52:21;;;;;;;50.88;12.23;;;5.10;99.90;;;;;;5055731;28;20037;-73
2022/01/13 01:54:48;;;;;;;34.50;12.25;;;5.40;99.90;;;;;;5084874;28;20093;-73
2022/01/13 01:57:15;;;;;;;35.85;12.23;;;4.90;99.90;;;;;;5091758;28;20479;-73
2022/01/13 01:59:42;;;;;;;30.10;11.70;;;;;;;;;;5067310;28;20048;-73
2022/01/13 02:02:10;;;;;;;42.75;11.50;;;;;;;;;;5076198;28;20499;-73
2022/01/13 02:04:37;;;;;;;40.63;11.18;;;;;;;;;;5088351;28;20048;-73
2022/01/13 02:07:05;;;;;;;43.85;12.73;;;;;;;;;;5072129;28;20075;-73
2022/01/13 02:09:31;;;;;;;48.10;11.40;;;;;;;;;;5063485;28;20039;-73
2022/01/13 02:12:04;;;;;;;53.88;11.95;;;;;;;;;;5092658;28;20063;-73
2022/01/13 02:14:36;;;;;;;75.57;11.77;;;;;;;;;;5071661;28;20051;-73
2022/01/13 02:17:07;;;;;;;62.78;12.07;;;;;;;;;;5072338;28;20047;-73
2022/01/13 02:19:40;;;;;;;47.60;11.18;;;5.00;99.90;;;;;;5078921;28;20043;-73
2022/01/13 02:22:06;;;;;;;;;;;4.80;99.90;;;;;;5092642;28;20054;-73
2022/01/13 02:24:33;;;;;;;99.20;11.40;;;;;;;;;;5086085;28;19920;-73
2022/01/13 02:26:59;;;;;;;52.92;10.77;;;;;;;;;;5072230;28;20033;-73
2022/01/13 02:29:25;;;;;;;39.30;11.15;;;;;;;;;;5085519;28;20507;-73
2022/01/13 02:31:52;;;;;;;91.38;11.27;;;;;;;;;;5072331;28;20044;-73
2022/01/13 02:34:18;;;;;;;88.38;11.60;;;;;;;;;;5074427;28;20045;-73
2022/01/13 02:36:45;;;;;;;85.15;11.50;;;;;;;;;;5091896;28;20032;-73
2022/01/13 02:39:11;;;;;;;73.97;12.02;;;3.80;99.90;;;;;;5077295;28;20048;-73
2022/01/13 02:41:37;;;;;;;75.28;11.63;;;;;;;;;;5096531;28;20100;-73
2022/01/13 02:44:11;;;;;;;86.45;11.90;;;5.40;99.90;;;;;;5096047;28;20109;-73
2022/01/13 02:49:11;;;;;;;36.40;11.45;;;4.70;99.90;;;;;;5077100;28;20123;-72
2022/01/13 02:51:38;;;;;;;32.22;11.93;;;4.40;99.90;;;;;;5095713;28;20484;-71
2022/01/13 02:54:05;;;;;;;68.88;11.80;;;;;;;;;;5096245;28;20044;-72
2022/01/13 02:56:31;;;;;;;26.90;11.20;;;;;;;;;;5091529;28;20044;-73
2022/01/13 02:58:57;;;;;;;49.13;11.35;;;;;;;;;;5068177;28;20040;-73
2022/01/13 03:01:24;;;;;;;54.17;10.80;;;;;;;;;;5079366;28;20047;-72
2022/01/13 03:03:50;;;;;;;36.35;10.70;;;;;;;;;;5075392;28;20051;-72
2022/01/13 03:06:24;;;;;;;46.17;11.18;;;4.50;99.90;;;;;;5089278;28;20488;-72
2022/01/13 03:08:53;;;;;;;103.88;11.93;;;4.60;99.90;;;;;;5082654;28;20045;-72
2022/01/13 03:11:19;;;;;;;92.25;12.30;;;;;;;;;;5088787;28;20048;-72
2022/01/13 03:13:46;;;;;;;62.17;11.43;;;;;;;;;;5095723;28;20040;-72
2022/01/13 03:16:15;;;;;;;39.17;11.23;;;4.30;99.90;;;;;;5091380;28;20047;-72
2022/01/13 03:18:41;;;;;;;63.50;10.77;;;4.60;99.90;;;;;;5085870;28;20047;-72
2022/01/13 03:21:08;;;;;;;51.53;11.32;;;;;;;;;;5083941;28;20119;-72
2022/01/13 03:23:36;;;;;;;63.58;10.80;;;4.40;99.90;;;;;;5075008;28;20106;-73
2022/01/13 03:26:02;;;;;;;71.38;11.68;;;4.50;99.90;;;;;;5075422;28;20036;-73
2022/01/13 03:28:30;;;;;;;40.42;11.70;;;;;;;;;;5083644;28;20050;-73
2022/01/13 03:31:00;;;;;;;35.53;11.23;;;4.50;99.90;;;;;;5091362;28;20107;-73
2022/01/13 03:33:27;;;;;;;34.13;10.85;;;4.50;99.90;;;;;;5075287;28;20036;-73
2022/01/13 03:35:53;;;;;;;46.55;11.32;;;;;;;;;;5081071;28;20036;-73
2022/01/13 03:38:19;;;;;;;61.15;11.48;;;;;;;;;;5082243;28;20037;-73
2022/01/13 03:40:45;;;;;;;34.88;11.10;;;;;;;;;;5078928;28;20044;-73
2022/01/13 03:43:11;;;;;;;112.43;12.45;;;;;;;;;;5095328;28;20039;-73
2022/01/13 03:45:37;;;;;;;38.22;10.55;;;;;;;;;;5075247;28;20040;-72
2022/01/13 03:48:06;;;;;;;74.32;11.77;;;4.80;99.90;;;;;;5078896;28;20032;-72
2022/01/13 03:50:32;;;;;;;51.60;11.60;;;;;;;;;;5076446;28;20471;-73
2022/01/13 03:53:01;;;;;;;70.68;11.07;;;4.80;99.90;;;;;;5074532;28;20040;-73
2022/01/13 03:55:36;;;;;;;66.80;11.80;;;;;;;;;;5074510;28;20517;-73
2022/01/13 03:58:02;;;;;;;32.83;10.93;;;;;;;;;;5094314;28;20039;-73
2022/01/13 04:00:41;;;;;;;34.08;11.23;;;;;;;;;;5077831;28;20121;-73
2022/01/13 04:03:08;;;;;;;48.35;12.02;;;;;;;;;;5094501;28;20078;-73
2022/01/13 04:06:08;;;;;;;54.63;11.90;;;4.40;99.90;;;;;;5094325;28;20500;-73
2022/01/13 04:08:34;;;;;;;73.13;12.30;;;;;;;;;;5087635;28;20033;-73
2022/01/13 04:11:06;;;;;;;55.58;11.18;;;4.60;99.90;;;;;;5077266;28;20040;-73
2022/01/13 04:13:46;;;;;;;127.73;13.20;;;4.50;99.90;;;;;;5094451;28;20127;-73
2022/01/13 04:16:13;;;;;;;61.55;11.25;;;4.50;99.90;;;;;;5090236;28;20290;-73
2022/01/13 04:18:39;;;;;;;79.13;12.43;;;;;;;;;;5063789;28;20054;-73
2022/01/13 04:21:05;;;;;;;37.95;11.10;;;;;;;;;;5092055;28;20052;-73
2022/01/13 04:23:32;;;;;;;68.57;12.60;;;4.70;99.90;;;;;;5057643;28;20370;-73
2022/01/13 04:25:58;;;;;;;75.05;12.57;;;;;;;;;;5058648;28;20400;-73
2022/01/13 04:28:28;;;;;;;80.07;14.15;;;;;;;;;;5077740;28;20036;-73
2022/01/13 04:31:00;;;;;;;65.47;13.77;;;4.70;99.90;;;;;;5090388;28;20033;-73
2022/01/13 04:33:30;;;;;;;97.82;13.82;;;5.20;99.90;;;;;;5073977;28;20076;-73
2022/01/13 04:35:57;;;;;;;41.85;13.27;;;4.60;99.90;;;;;;5073567;28;20408;-73
2022/01/13 04:38:23;;;;;;;59.25;13.57;;;;;;;;;;5070744;28;20448;-73
2022/01/13 04:40:55;;;;;;;46.70;12.98;;;;;;;;;;5073473;28;20400;-73
2022/01/13 04:43:22;;;;;;;117.70;14.73;;;4.70;99.90;;;;;;5091378;28;20048;-73
2022/01/13 04:45:48;;;;;;;71.55;14.38;;;;;;;;;;5076968;28;20404;-72
2022/01/13 04:48:14;;;;;;;73.57;14.65;;;;;;;;;;5080379;28;20079;-73
2022/01/13 04:50:41;;;;;;;89.97;15.13;;;4.60;99.90;;;;;;5093777;28;20036;-73
2022/01/13 04:53:07;;;;;;;69.78;15.23;;;;;;;;;;5078864;28;20484;-72
2022/01/13 04:55:35;;;;;;;77.78;13.98;;;4.20;99.90;;;;;;5073375;28;20549;-72
2022/01/13 04:58:02;;;;;;;86.90;16.52;;;;;;;;;;5085452;28;20044;-73
2022/01/13 05:00:32;;;;;;;134.88;16.67;;;4.70;99.90;;;;;;5056112;28;20043;-73
2022/01/13 05:02:58;;;;;;;105.15;15.80;;;;;;;;;;5085142;28;20051;-72
2022/01/13 05:05:25;;;;;;;116.95;16.40;;;4.90;99.90;;;;;;5087879;28;20033;-72
2022/01/13 05:07:52;;;;;;;174.57;16.65;;;;;;;;;;5073362;28;20113;-72
2022/01/13 05:10:18;;;;;;;124.90;16.00;;;;;;;;;;5073101;28;20064;-72
2022/01/13 05:12:46;;;;;;;63.22;14.90;;;4.80;99.90;;;;;;5080742;28;20068;-72
2022/01/13 05:15:18;;;;;;;59.45;15.05;;;4.80;99.90;;;;;;5076444;28;20071;-73
2022/01/13 05:21:05;;;;;;;63.97;15.10;;;;;;;;;;5132084;27;20378;-73
2022/01/13 05:23:32;;;;;;;53.92;16.25;;;;;;;;;;5130327;28;20491;-73
2022/01/13 05:25:58;;;;;;;61.08;14.90;;;;;;;;;;5130572;28;20118;-74
2022/01/13 05:28:24;;;;;;;55.60;15.45;;;;;;;;;;5130224;28;20387;-74
2022/01/13 05:30:51;;;;;;;50.50;16.25;;;;;;;;;;5113422;27;20035;-74
2022/01/13 05:33:17;;;;;;;74.97;16.92;;;;;;;;;;5130149;28;20548;-74
2022/01/13 05:35:43;;;;;;;42.47;15.35;;;;;;;;;;5130563;27;20390;-73
2022/01/13 05:38:09;;;;;;;51.97;17.67;;;;;;;;;;5127825;27;20035;-74
2022/01/13 05:40:36;;;;;;;55.08;17.15;;;;;;;;;;5109500;28;20071;-73
2022/01/13 05:43:03;;;;;;;60.55;17.30;;;;;;;;;;5115411;28;20027;-71
2022/01/13 05:45:29;;;;;;;61.63;18.35;;;;;;;;;;5126803;27;20088;-72
2022/01/13 05:47:58;;;;;;;58.10;18.75;;;5.20;99.90;;;;;;5120461;28;20495;-73
2022/01/13 05:50:24;;;;;;;59.30;18.77;;;5.10;99.90;;;;;;5119526;28;20068;-72
2022/01/13 05:52:51;;;;;;;55.97;19.42;;;;;;;;;;5117193;27;20071;-72
2022/01/13 05:55:17;;;;;;;55.42;20.52;;;;;;;;;;5130117;28;20422;-72
2022/01/13 05:57:43;;;;;;;60.47;19.73;;;;;;;;;;5128560;27;20084;-72
2022/01/13 06:00:11;;;;;;;64.05;18.20;;;;;;;;;;5129743;27;20046;-72
2022/01/13 06:02:37;;;;;;;63.63;18.67;;;;;;;;;;5129760;28;20077;-72
2022/01/13 06:05:03;;;;;;;64.85;20.55;;;5.60;99.90;;;;;;5121430;28;20123;-72
2022/01/13 06:07:29;;;;;;;60.63;19.75;;;;;;;;;;5092187;28;20038;-72
2022/01/13 06:09:55;;;;;;;69.07;20.70;;;;;;;;;;5126969;28;20051;-72
2022/01/13 06:12:32;;;;;;;61.95;19.10;;;;;;;;;;5112523;27;20042;-72
2022/01/13 06:14:59;;;;;;;69.78;20.42;;;5.20;99.90;;;;;;5103042;28;20039;-72
2022/01/13 06:17:25;;;;;;;59.30;19.52;;;;;;;;;;5129734;27;20050;-72
2022/01/13 06:19:51;;;;;;;71.97;19.55;;;;;;;;;;5112709;28;20414;-72
2022/01/13 06:22:17;;;;;;;56.38;18.65;;;;;;;;;;5092330;28;20058;-72
2022/01/13 06:24:43;;;;;;;59.05;19.40;;;;;;;;;;5124323;28;20118;-72
2022/01/13 06:27:09;;;;;;;69.85;20.75;;;;;;;;;;5129647;28;20035;-72
2022/01/13 06:29:35;;;;;;;63.17;19.90;;;;;;;;;;5115222;28;20036;-72
2022/01/13 06:32:01;;;;;;;55.60;18.85;;;;;;;;;;5078603;28;20131;-72
2022/01/13 06:34:27;;;;;;;61.35;20.17;;;5.90;99.90;;;;;;5102936;28;20043;-72
2022/01/13 06:36:53;;;;;;;69.05;20.42;;;5.70;99.90;;;;;;5098561;28;20047;-72
2022/01/13 06:39:19;;;;;;;62.33;20.08;;;;;;;;;;5110296;28;20119;-72
2022/01/13 06:41:45;;;;;;;58.50;19.08;;;;;;;;;;5115818;28;20036;-72
2022/01/13 06:44:10;;;;;;;67.82;21.75;;;6.40;99.90;;;;;;5113015;28;20430;-72
2022/01/13 06:46:36;;;;;;;65.90;20.08;;;;;;;;;;5115489;28;20091;-72
2022/01/13 06:49:03;;;;;;;61.33;20.13;;;;;;;;;;5108089;28;20134;-72
2022/01/13 06:51:30;;;;;;;60.03;19.95;;;;;;;;;;5115141;28;20051;-69
2022/01/13 06:53:56;;;;;;;75.35;21.60;;;;;;;;;;5110614;28;20587;-72
2022/01/13 06:56:24;;;;;;;73.85;23.10;;;;;;;;;;5097897;28;20036;-72
2022/01/13 06:58:51;;;;;;;72.30;22.73;;;;;;;;;;5091109;28;20044;-72
2022/01/13 07:01:17;;;;;;;70.82;21.58;;;;;;;;;;5114234;28;20039;-72
2022/01/13 07:03:43;;;;;;;73.75;22.60;;;;;;;;;;5114533;28;20043;-71
2022/01/13 07:06:10;;;;;;;70.32;22.35;;;;;;;;;;5095339;28;20442;-72
2022/01/13 07:08:36;;;;;;;65.40;21.40;;;;;;;;;;5097979;28;20500;-72
2022/01/13 07:11:04;;;;;;;68.13;21.58;;;;;;;;;;5097546;28;20090;-72
2022/01/13 07:13:33;;;;;;;76.07;22.23;;;5.80;99.90;;;;;;5094239;28;20036;-71
2022/01/13 07:16:01;;;;;;;70.35;23.00;;;6.00;99.90;;;;;;5109209;28;20066;-72
2022/01/13 07:18:27;;;;;;;70.15;22.10;;;5.90;99.90;;;;;;5109298;28;20048;-72
2022/01/13 07:20:54;;;;;;;67.32;23.38;;;;;;;;;;5090231;28;20100;-72
2022/01/13 07:23:20;;;;;;;86.55;23.90;;;6.00;99.90;;;;;;5114701;28;20088;-72
2022/01/13 07:25:46;;;;;;;77.50;21.02;;;;;;;;;;5106222;28;20044;-72
2022/01/13 07:28:12;;;;;;;84.78;23.45;;;;;;;;;;5111559;28;20395;-72
2022/01/13 07:30:38;;;;;;;82.32;23.52;;;;;;;;;;5086332;28;20399;-72
2022/01/13 07:33:05;;;;;;;82.47;22.77;;;;;;;;;;5114246;28;20220;-72
2022/01/13 07:35:31;;;;;;;84.72;24.92;;;;;;;;;;5106455;28;20062;-72
2022/01/13 07:37:58;;;;;;;94.93;25.33;;;;;;;;;;5096985;28;20039;-71
2022/01/13 07:40:24;;;;;;;92.43;24.98;;;5.40;99.90;;;;;;5108228;28;20032;-71
2022/01/13 07:42:50;;;;;;;94.15;25.88;;;;;;;;;;5092814;28;20051;-72
2022/01/13 07:45:18;;;;;;;100.20;25.85;;;6.40;99.90;;;;;;5086195;28;20144;-72
2022/01/13 07:47:44;;;;;;;88.28;25.60;;;;;;;;;;5077015;28;20385;-72
2022/01/13 07:50:12;;;;;;;83.53;25.15;;;6.30;99.90;;;;;;5110230;28;20071;-71
2022/01/13 07:52:39;;;;;;;89.97;25.58;;;;;;;;;;5093441;28;20122;-72
2022/01/13 07:55:05;;;;;;;88.68;25.80;;;;;;;;;;5077068;28;20125;-71
2022/01/13 07:57:31;;;;;;;80.32;24.42;;;;;;;;;;5097415;28;20040;-71
2022/01/13 07:59:57;;;;;;;88.03;24.70;;;;;;;;;;5096988;28;20032;-72
2022/01/13 08:02:23;;;;;;;96.93;26.52;;;;;;;;;;5095884;28;20044;-72
2022/01/13 08:04:49;;;;;;;70.18;23.45;;;;;;;;;;5113521;28;20041;-72
2022/01/13 08:07:16;;;;;;;92.03;25.30;;;6.40;99.90;;;;;;5078945;28;20032;-72
2022/01/13 08:09:42;;;;;;;83.95;25.15;;;;;;;;;;5090434;28;20126;-72
2022/01/13 08:12:09;;;;;;;78.90;24.85;;;6.50;99.90;;;;;;5083996;28;20050;-71
2022/01/13 08:14:35;;;;;;;82.72;23.88;;;;;;;;;;5096535;28;20039;-72
2022/01/13 08:17:02;;;;;;;87.75;25.48;;;;;;;;;;5099193;28;20512;-72
2022/01/13 08:19:48;;;;;;;89.40;26.48;;;5.70;99.90;;;;;;5088271;28;20452;-72
2022/01/13 08:22:15;;;;;;;83.65;25.50;;;;;;;;;;5103123;28;20071;-72
2022/01/13 08:24:41;;;;;;;88.40;24.50;;;;;;;;;;5113440;28;20035;-71
2022/01/13 08:27:07;;;;;;;104.15;27.88;;;;;;;;;;5099682;28;20396;-72
2022/01/13 08:29:33;;;;;;;85.05;25.17;;;;;;;;;;5105529;28;20048;-72
2022/01/13 08:31:59;;;;;;;88.90;24.00;;;;;;;;;;5085415;28;20035;-72
2022/01/13 08:34:25;;;;;;;96.50;25.95;;;;;;;;;;5113318;28;20047;-72
2022/01/13 08:36:51;;;;;;;95.35;28.38;;;;;;;;;;5085864;28;20085;-72
2022/01/13 08:39:17;;;;;;;90.03;25.33;;;;;;;;;;5092648;28;20040;-72
2022/01/13 08:41:43;;;;;;;92.60;25.27;;;;;;;;;;5098126;28;20036;-72
2022/01/13 08:44:10;;;;;;;102.40;26.92;;;6.60;99.90;;;;;;5109125;28;20067;-72
2022/01/13 08:46:37;;;;;;;79.72;25.35;;;6.40;99.90;;;;;;5105356;28;20488;-72
2022/01/13 08:49:03;;;;;;;86.15;25.30;;;;;;;;;;5092596;28;20047;-72
2022/01/13 08:51:29;;;;;;;91.93;26.10;;;;;;;;;;5098365;28;20035;-72
2022/01/13 08:53:55;;;;;;;86.38;24.48;;;;;;;;;;5112601;28;20047;-72
2022/01/13 08:56:22;;;;;;;78.90;24.60;;;;;;;;;;5109810;28;20374;-72
2022/01/13 08:58:48;;;;;;;92.60;24.92;;;;;;;;;;5092250;28;20044;-72
2022/01/13 09:01:14;;;;;;;77.13;24.95;;;;;;;;;;5079855;28;20039;-72
2022/01/13 09:03:40;;;;;;;100.40;27.98;;;;;;;;;;5092329;28;20032;-72
2022/01/13 09:06:06;;;;;;;81.80;25.77;;;;;;;;;;5075708;28;20112;-72
2022/01/13 09:08:33;;;;;;;97.07;25.92;;;;;;;;;;5112410;28;20036;-72
2022/01/13 09:11:00;;;;;;;102.38;27.73;;;;;;;;;;5107643;28;20040;-72
2022/01/13 09:13:26;;;;;;;90.50;27.00;;;;;;;;;;5110777;28;20036;-72
2022/01/13 09:15:59;;;;;;;91.38;28.15;;;;;;;;;;5093759;28;20059;-72
2022/01/13 09:21:21;;;;;;;79.28;27.05;;;;;;;;;;5081212;28;20044;-72
2022/01/13 09:23:47;;;;;;;92.45;27.45;;;;;;;;;;5093266;28;20120;-73
2022/01/13 09:26:17;;;;;;;72.97;26.85;;;;;;;;;;5092192;28;20042;-73
2022/01/13 09:28:43;;;;;;;82.88;29.15;;;;;;;;;;5111593;28;20082;-72
2022/01/13 09:31:09;;;;;;;88.65;27.98;;;;;;;;;;5111840;28;20039;-71
2022/01/13 09:33:36;;;;;;;83.28;27.05;;;;;;;;;;5108951;28;20387;-71
2022/01/13 09:36:04;;;;;;;79.38;27.02;;;6.90;99.90;;;;;;5092735;28;20429;-72
2022/01/13 09:38:30;;;;;;;77.57;27.52;;;;;;;;;;5107072;28;20078;-72
2022/01/13 09:40:56;;;;;;;75.05;26.55;;;;;;;;;;5112122;28;20044;-72
2022/01/13 09:43:25;;;;;;;84.15;27.42;;;6.90;99.90;;;;;;5105473;28;20040;-72
2022/01/13 09:45:51;;;;;;;97.93;28.95;;;;;;;;;;5112373;28;20047;-73
2022/01/13 09:48:17;;;;;;;82.05;27.20;;;;;;;;;;5099899;28;20434;-73
2022/01/13 09:50:46;;;;;;;86.70;27.30;;;;;;;;;;5091709;28;20040;-73
2022/01/13 09:53:12;;;;;;;80.35;27.40;;;6.90;99.90;;;;;;5096580;28;20044;-73
2022/01/13 09:55:40;;;;;;;91.35;29.83;;;7.10;99.90;;;;;;5104019;28;20074;-73
2022/01/13 09:58:10;;;;;;;75.63;28.40;;;;;;;;;;5091619;28;20565;-74
2022/01/13 10:00:38;;;;;;;68.75;29.15;;;7.20;99.90;;;;;;5085405;28;20048;-74
2022/01/13 10:03:23;;;;;;;76.70;26.90;;;7.20;99.90;;;;;;5093955;28;20044;-74
2022/01/13 10:05:52;;;;;;;77.45;26.73;;;;;;;;;;5090596;28;20032;-73
2022/01/13 10:08:53;;;;;;;80.22;28.33;;;7.00;99.90;;;;;;5095802;28;20085;-74
2022/01/13 10:11:35;;;;;;;83.00;27.27;;;7.20;99.90;;;;;;5087029;28;20046;-73
2022/01/13 10:14:04;;;;;;;64.35;26.02;;;7.00;99.90;;;;;;5111285;28;20046;-74
2022/01/13 10:16:30;;;;;;;72.95;25.85;;;;;;;;;;5113977;28;20096;-75
2022/01/13 10:18:56;;;;;;;86.07;27.35;;;;;;;;;;5107753;28;20058;-73
2022/01/13 10:21:23;;;;;;;75.32;26.13;;;;;;;;;;5092836;28;20503;-73
2022/01/13 10:24:11;;;;;;;69.50;25.55;;;7.20;99.90;;;;;;5085424;28;20039;-73
2022/01/13 10:26:55;;;;;;;87.90;26.40;;;6.80;99.90;;;;;;5078603;28;20031;-73
2022/01/13 10:29:46;;;;;;;72.25;24.52;;;7.10;99.90;;;;;;5098423;28;20498;-74
2022/01/13 10:32:23;;;;;;;69.72;24.20;;;7.20;99.90;;;;;;5110576;28;20043;-73
2022/01/13 10:35:10;;;;;;;78.25;25.10;;;6.90;99.90;;;;;;5096939;28;20093;-73
2022/01/13 10:37:45;;;;;;;74.57;25.50;;;7.00;99.90;;;;;;5107329;28;20109;-73
2022/01/13 10:40:18;;;;;;;68.45;26.05;;;6.90;99.90;;;;;;5103923;28;20040;-73
2022/01/13 10:45:22;;;;;;;70.95;25.83;;;;;;;;;;5107382;28;20035;-74
2022/01/13 10:47:52;;;;;;;70.28;25.15;;;;;;;;;;5079281;28;20043;-73
2022/01/13 10:50:19;;;;;;;65.60;25.85;;;;;;;;;;5096021;28;20040;-73
2022/01/13 10:52:51;;;;;;;81.43;29.23;;;;;;;;;;5094492;28;20554;-73
2022/01/13 10:55:22;;;;;;;76.45;27.17;;;7.00;99.90;;;;;;5098459;28;20047;-73
2022/01/13 10:57:50;;;;;;;76.18;27.02;;;7.10;99.90;;;;;;5099812;28;20449;-73
2022/01/13 11:00:16;;;;;;;70.15;27.13;;;;;;;;;;5097121;28;20075;-74
2022/01/13 11:02:42;;;;;;;61.88;23.17;;;;;;;;;;5110620;28;20032;-74
2022/01/13 11:05:10;;;;;;;68.95;25.52;;;;;;;;;;5097498;28;20111;-73
2022/01/13 11:07:36;;;;;;;74.40;26.63;;;;;;;;;;5112944;28;20126;-73
2022/01/13 11:10:05;;;;;;;67.80;26.35;;;5.90;99.90;;;;;;5108084;28;20067;-73
2022/01/13 11:12:35;;;;;;;64.72;25.40;;;6.70;99.90;;;;;;5093241;28;20047;-73
2022/01/13 11:15:05;;;;;;;69.65;25.73;;;;;;;;;;5105282;28;20048;-73
2022/01/13 11:17:38;;;;;;;74.65;26.75;;;7.00;99.90;;;;;;5083923;28;20032;-73
2022/01/13 11:20:04;;;;;;;;;;;7.10;99.90;;;;;;5111592;28;20040;-73
2022/01/13 11:22:35;;;;;;;63.10;25.25;;;6.70;99.90;;;;;;5110549;28;20301;-73
2022/01/13 11:25:06;;;;;;;74.35;26.50;;;7.20;99.90;;;;;;5100325;27;20023;-72
2022/01/13 11:27:33;;;;;;;60.17;27.20;;;;;;;;;;5112598;27;20035;-73
2022/01/13 11:29:59;;;;;;;74.22;26.75;;;;;;;;;;5134713;27;20087;-73
2022/01/13 11:32:25;;;;;;;75.63;26.38;;;;;;;;;;5095598;28;20357;-73
2022/01/13 11:34:53;;;;;;;66.45;26.60;;;7.30;99.90;;;;;;5101221;28;20035;-73
2022/01/13 11:37:19;;;;;;;80.97;26.55;;;;;;;;;;5093627;28;20050;-73
2022/01/13 11:39:46;;;;;;;62.72;26.20;;;;;;;;;;5107577;28;20433;-73
2022/01/13 11:42:13;;;;;;;67.93;25.80;;;7.50;99.90;;;;;;5094101;28;20485;-73
2022/01/13 11:44:40;;;;;;;69.25;25.17;;;;;;;;;;5095643;28;20036;-72
2022/01/13 11:47:22;;;;;;;64.00;24.65;;;7.30;99.90;;;;;;5076628;28;20113;-73
2022/01/13 11:50:04;;;;;;;56.25;21.70;;;;;;;;;;5112455;28;20430;-73
2022/01/13 11:53:10;;;;;;;64.30;23.10;;;7.60;99.90;;;;;;5095407;28;20047;-73
2022/01/13 11:55:35;;;;;;;49.88;21.90;;;7.60;99.90;;;;;;5102595;28;20047;-72
2022/01/13 11:58:15;;;;;;;53.15;21.27;;;;;;;;;;5084604;28;20048;-73
2022/01/13 12:00:42;;;;;;;53.55;20.65;;;7.60;99.90;;;;;;5113538;28;20504;-72
2022/01/13 12:03:28;;;;;;;46.65;20.60;;;;;;;;;;5093649;28;20400;-73
2022/01/13 12:05:55;;;;;;;49.38;20.33;;;7.70;99.90;;;;;;5109140;28;20085;-72
2022/01/13 12:08:44;;;;;;;50.63;19.35;;;8.10;99.90;;;;;;5109174;28;20032;-73
2022/01/13 12:11:30;;;;;;;46.63;19.00;;;8.10;99.90;;;;;;5093406;28;20039;-73
2022/01/13 12:13:56;;;;;;;48.10;19.38;;;;;;;;;;5097853;28;20377;-71
2022/01/13 12:16:57;;;;;;;49.38;20.15;;;8.00;99.90;;;;;;5078813;28;20063;-71
2022/01/13 12:19:44;;;;;;;51.70;19.63;;;8.00;99.90;;;;;;5113364;28;20377;-71
2022/01/13 12:22:35;;;;;;;69.18;22.10;;;8.00;99.90;;;;;;5101153;28;20038;-72
2022/01/13 12:25:02;;;;;;;43.30;19.33;;;;;;;;;;5113579;28;20047;-71
2022/01/13 12:27:40;;;;;;;47.60;19.67;;;8.20;99.90;;;;;;5111410;28;20555;-72
2022/01/13 12:30:13;;;;;;;52.83;20.40;;;7.20;99.90;;;;;;5108038;28;20071;-71
2022/01/13 12:33:00;;;;;;;46.55;20.50;;;8.10;99.90;;;;;;5103822;28;20046;-73
2022/01/13 12:35:38;;;;;;;44.85;18.60;;;8.00;99.90;;;;;;5112761;28;20047;-72
2022/01/13 12:38:17;;;;;;;47.00;19.05;;;8.00;99.90;;;;;;5092735;28;20039;-71
2022/01/13 12:41:04;;;;;;;44.72;17.70;;;7.60;99.90;;;;;;5112490;28;20100;-72
2022/01/13 12:43:50;;;;;;;53.67;18.38;;;8.50;99.90;;;;;;5096240;28;20036;-72
2022/01/13 12:46:24;;;;;;;47.50;19.13;;;8.10;99.90;;;;;;5093213;28;20075;-72
2022/01/13 12:48:54;;;;;;;54.78;19.85;;;8.20;99.90;;;;;;5077581;28;20046;-72
2022/01/13 12:51:26;;;;;;;53.42;18.92;;;8.10;99.90;;;;;;5090530;28;20361;-72
2022/01/13 12:53:54;;;;;;;;;;;8.30;99.90;;;;;;5097299;28;20044;-72
2022/01/13 12:56:28;;;;;;;50.78;18.00;;;8.10;99.90;;;;;;5093385;28;19928;-72
2022/01/13 12:59:02;;;;;;;44.92;17.75;;;8.60;99.90;;;;;;5096222;28;20127;-72
2022/01/13 13:01:31;;;;;;;44.95;18.60;;;8.10;99.90;;;;;;5091035;28;20050;-72
2022/01/13 13:04:06;;;;;;;38.58;17.00;;;8.10;99.90;;;;;;5079334;28;20442;-72
2022/01/13 13:06:33;;;;;;;46.35;17.35;;;7.90;99.90;;;;;;5094511;28;20043;-72
2022/01/13 13:09:10;;;;;;;45.17;17.15;;;;;;;;;;5097056;28;20116;-72
2022/01/13 13:11:41;;;;;;;54.92;18.15;;;8.10;99.90;;;;;;5108177;28;20047;-72
2022/01/13 13:14:15;;;;;;;53.00;16.52;;;8.80;99.90;;;;;;5096464;28;20369;-72
2022/01/13 13:16:47;;;;;;;46.42;16.58;;;8.80;99.90;;;;;;5095481;28;20042;-72
2022/01/13 13:19:13;;;;;;;48.60;16.93;;;7.40;99.90;;;;;;5095874;28;20054;-72
2022/01/13 13:21:39;;;;;;;40.28;16.30;;;8.10;99.90;;;;;;5101055;28;20403;-74
2022/01/13 13:24:05;;;;;;;41.53;16.42;;;7.70;99.90;;;;;;5092709;28;20040;-72
2022/01/13 13:26:32;;;;;;;44.53;15.27;;;;;;;;;;5075481;28;20115;-72
2022/01/13 13:28:58;;;;;;;44.25;16.00;;;;;;;;;;5087730;28;20511;-73
2022/01/13 13:31:30;;;;;;;39.72;14.60;;;8.80;99.90;;;;;;5104227;28;20081;-73
2022/01/13 13:34:01;;;;;;;45.00;13.80;;;;;;;;;;5087033;28;20052;-73
2022/01/13 13:36:27;;;;;;;42.10;15.00;;;;;;;;;;5112179;28;20503;-73
2022/01/13 13:38:55;;;;;;;45.72;15.63;;;8.30;99.90;;;;;;5101180;28;20036;-73
2022/01/13 13:41:24;;;;;;;42.03;13.82;;;8.20;99.90;;;;;;5100913;28;20499;-73
2022/01/13 13:43:52;;;;;;;44.78;14.95;;;8.10;99.90;;;;;;5105707;28;20040;-73
2022/01/13 13:46:18;;;;;;;39.25;14.02;;;;;;;;;;5105568;28;20484;-73
2022/01/13 13:48:45;;;;;;;37.67;13.73;;;8.40;99.90;;;;;;5116127;28;20042;-73
2022/01/13 13:51:23;;;;;;;43.47;13.75;;;8.20;99.90;;;;;;5110430;28;20047;-73
2022/01/13 13:54:10;;;;;;;37.38;14.32;;;8.10;99.90;;;;;;5098810;28;20064;-73
2022/01/13 13:56:48;;;;;;;42.25;13.30;;;8.20;99.90;;;;;;5096089;28;20032;-73
2022/01/13 13:59:18;;;;;;;42.63;13.55;;;8.10;99.90;;;;;;5107170;28;20518;-73
2022/01/13 14:02:06;;;;;;;37.85;12.63;;;8.00;99.90;;;;;;5106639;28;20366;-73
2022/01/13 14:04:50;;;;;;;37.05;11.82;;;8.90;99.90;;;;;;5081871;28;20047;-73
2022/01/13 14:07:28;;;;;;;37.28;12.40;;;8.30;99.90;;;;;;5095576;28;20237;-73